createdAt,value
2022-08-17T00:01:56.428Z,27.67
2022-08-17T00:03:58.297Z,31.42
2022-08-17T00:06:04.325Z,27.02
2022-08-17T00:08:06.112Z,29.50
2022-08-17T00:10:07.948Z,28.55
2022-08-17T00:12:43.736Z,30.40
2022-08-17T00:14:31.007Z,25.00
2022-08-17T00:16:55.480Z,25.38
2022-08-17T00:19:07.499Z,26.35
2022-08-17T00:21:11.217Z,33.65
2022-08-17T00:23:15.497Z,34.78
2022-08-17T00:25:19.971Z,32.22
2022-08-17T00:27:21.647Z,35.58
2022-08-17T00:29:23.297Z,35.00
2022-08-17T00:31:24.882Z,35.70
2022-08-17T00:33:29.529Z,36.75
2022-08-17T00:35:31.258Z,36.20
2022-08-17T00:37:32.855Z,33.05
2022-08-17T00:39:34.498Z,27.30
2022-08-17T00:41:36.120Z,23.45
2022-08-17T00:43:48.014Z,24.80
2022-08-17T00:45:49.715Z,24.10
2022-08-17T00:47:51.343Z,21.70
2022-08-17T00:49:53.089Z,17.08
2022-08-17T00:52:11.627Z,16.40
2022-08-17T00:54:19.498Z,14.63
2022-08-17T00:56:29.004Z,12.85
2022-08-17T00:58:36.464Z,12.80
2022-08-17T01:00:41.521Z,14.10
2022-08-17T01:02:45.790Z,12.07
2022-08-17T01:04:50.046Z,12.02
2022-08-17T01:06:51.744Z,12.50
2022-08-17T01:08:57.528Z,12.30
2022-08-17T01:11:02.338Z,13.23
2022-08-17T01:13:05.043Z,12.88
2022-08-17T01:15:07.119Z,11.15
2022-08-17T01:17:09.328Z,11.90
2022-08-17T01:19:21.960Z,11.48
2022-08-17T01:22:07.193Z,12.30
2022-08-17T01:24:08.870Z,12.45
2022-08-17T01:26:10.486Z,15.77
2022-08-17T01:28:12.171Z,16.73
2022-08-17T01:30:58.316Z,16.15
2022-08-17T01:32:55.452Z,20.73
2022-08-17T01:34:57.651Z,18.13
2022-08-17T01:36:59.262Z,18.67
2022-08-17T01:39:00.890Z,17.58
2022-08-17T01:41:07.232Z,21.95
2022-08-17T01:43:12.720Z,22.42
2022-08-17T01:45:20.400Z,19.67
2022-08-17T01:47:22.491Z,27.35
2022-08-17T01:49:25.628Z,29.73
2022-08-17T01:51:33.303Z,23.33
2022-08-17T01:53:45.559Z,26.83
2022-08-17T01:55:59.237Z,33.50
2022-08-17T01:58:00.877Z,30.13
2022-08-17T02:00:07.560Z,28.88
2022-08-17T02:02:09.225Z,28.88
2022-08-17T02:04:11.586Z,31.13
2022-08-17T02:06:27.484Z,28.63
2022-08-17T02:08:36.995Z,26.90
2022-08-17T02:10:46.880Z,28.92
2022-08-17T02:12:50.527Z,23.88
2022-08-17T02:14:52.308Z,25.05
2022-08-17T02:16:54.392Z,27.77
2022-08-17T02:18:56.025Z,26.83
2022-08-17T02:20:57.765Z,28.98
2022-08-17T02:23:03.384Z,30.42
2022-08-17T02:25:09.878Z,31.52
2022-08-17T02:27:11.503Z,37.97
2022-08-17T02:29:14.997Z,35.75
2022-08-17T02:31:16.645Z,35.25
2022-08-17T02:33:18.311Z,42.28
2022-08-17T02:35:22.633Z,45.00
2022-08-17T02:37:25.610Z,40.83
2022-08-17T02:39:27.271Z,43.10
2022-08-17T02:41:28.876Z,39.90
2022-08-17T02:43:30.463Z,40.70
2022-08-17T02:45:32.018Z,38.28
2022-08-17T02:47:34.345Z,34.83
2022-08-17T02:49:35.978Z,33.58
2022-08-17T02:51:37.649Z,32.90
2022-08-17T02:53:39.212Z,38.10
2022-08-17T02:55:41.779Z,33.50
2022-08-17T02:57:43.609Z,33.75
2022-08-17T02:59:48.953Z,31.27
2022-08-17T03:01:51.035Z,25.48
2022-08-17T03:03:52.689Z,22.40
2022-08-17T03:05:54.235Z,23.77
2022-08-17T03:07:56.549Z,21.15
2022-08-17T03:09:58.238Z,22.10
2022-08-17T03:12:15.013Z,17.48
2022-08-17T03:14:17.081Z,18.75
2022-08-17T03:16:19.733Z,18.52
2022-08-17T03:18:25.801Z,17.50
2022-08-17T03:20:31.162Z,17.85
2022-08-17T03:22:38.567Z,17.25
2022-08-17T03:24:40.278Z,18.30
2022-08-17T03:26:42.637Z,19.48
2022-08-17T03:28:44.298Z,17.52
2022-08-17T03:30:45.870Z,22.65
2022-08-17T03:32:49.743Z,19.48
2022-08-17T03:34:51.521Z,20.60
2022-08-17T03:36:53.130Z,23.08
2022-08-17T03:38:54.692Z,28.95
2022-08-17T03:40:59.695Z,26.13
2022-08-17T03:43:06.393Z,29.33
2022-08-17T03:45:15.055Z,28.98
2022-08-17T03:47:35.527Z,25.23
2022-08-17T03:49:55.566Z,26.45
2022-08-17T03:52:16.225Z,17.77
2022-08-17T03:54:36.709Z,19.27
2022-08-17T03:56:44.619Z,26.13
2022-08-17T03:58:46.870Z,19.65
2022-08-17T04:00:49.626Z,18.27
2022-08-17T04:02:51.927Z,17.38
2022-08-17T04:04:54.301Z,18.25
2022-08-17T04:06:56.352Z,17.88
2022-08-17T04:08:58.055Z,19.92
2022-08-17T04:11:00.529Z,13.70
2022-08-17T04:13:02.205Z,14.07
2022-08-17T04:15:04.062Z,13.45
2022-08-17T04:17:06.419Z,16.08
2022-08-17T04:19:08.048Z,14.95
2022-08-17T04:21:10.028Z,17.58
2022-08-17T04:23:15.526Z,20.00
2022-08-17T04:25:19.847Z,15.15
2022-08-17T04:27:21.458Z,16.17
2022-08-17T04:29:23.007Z,17.85
2022-08-17T04:31:25.575Z,18.05
2022-08-17T04:33:28.629Z,23.08
2022-08-17T04:35:33.161Z,17.95
2022-08-17T04:37:34.863Z,23.42
2022-08-17T04:39:36.451Z,25.23
2022-08-17T04:41:56.874Z,19.15
2022-08-17T04:43:58.758Z,22.35
2022-08-17T04:46:04.702Z,29.35
2022-08-17T04:48:06.937Z,22.40
2022-08-17T04:50:08.904Z,31.70
2022-08-17T04:52:11.003Z,22.48
2022-08-17T04:54:32.676Z,21.13
2022-08-17T04:56:35.105Z,20.27
2022-08-17T04:58:36.827Z,27.38
2022-08-17T05:00:39.311Z,22.45
2022-08-17T05:02:49.603Z,20.05
2022-08-17T05:04:51.686Z,22.83
2022-08-17T05:06:55.148Z,20.80
2022-08-17T05:08:57.982Z,21.35
2022-08-17T05:11:00.378Z,18.40
2022-08-17T05:13:03.767Z,22.08
2022-08-17T05:15:05.863Z,16.88
2022-08-17T05:17:11.261Z,17.80
2022-08-17T05:19:13.127Z,20.52
2022-08-17T05:21:15.141Z,18.27
2022-08-17T05:23:18.494Z,18.52
2022-08-17T05:25:28.441Z,21.65
2022-08-17T05:27:35.296Z,19.92
2022-08-17T05:29:37.569Z,18.80
2022-08-17T05:31:39.153Z,23.42
2022-08-17T05:33:46.243Z,24.02
2022-08-17T05:35:50.339Z,24.65
2022-08-17T05:37:52.044Z,20.90
2022-08-17T05:39:54.570Z,22.27
2022-08-17T05:41:56.214Z,20.40
2022-08-17T05:43:57.841Z,22.88
2022-08-17T05:46:12.529Z,25.52
2022-08-17T05:48:14.901Z,26.33
2022-08-17T05:50:27.299Z,24.10
2022-08-17T05:52:48.592Z,29.20
2022-08-17T05:55:05.597Z,24.88
2022-08-17T05:57:31.637Z,23.92
2022-08-17T05:59:58.778Z,27.85
2022-08-17T06:02:11.430Z,26.10
2022-08-17T06:04:34.446Z,22.10
2022-08-17T06:06:44.865Z,28.33
2022-08-17T06:09:10.499Z,26.40
2022-08-17T06:11:27.274Z,23.20
2022-08-17T06:13:48.011Z,23.92
2022-08-17T06:16:03.195Z,30.80
2022-08-17T06:18:07.026Z,32.90
2022-08-17T06:20:14.494Z,33.33
2022-08-17T06:22:19.236Z,31.52
2022-08-17T06:24:29.159Z,30.08
2022-08-17T06:26:41.087Z,33.20
2022-08-17T06:28:53.900Z,28.98
2022-08-17T06:31:00.749Z,32.28
2022-08-17T06:33:06.778Z,32.13
2022-08-17T06:35:10.799Z,33.20
2022-08-17T06:37:31.247Z,36.17
2022-08-17T06:39:38.513Z,35.70
2022-08-17T06:41:58.196Z,34.38
2022-08-17T06:46:22.077Z,35.60
2022-08-17T06:48:40.951Z,30.17
2022-08-17T06:50:48.087Z,30.33
2022-08-17T06:53:18.096Z,29.40
2022-08-17T06:55:26.844Z,32.72
2022-08-17T06:57:31.593Z,31.25
2022-08-17T07:00:00.782Z,31.15
2022-08-17T07:02:05.658Z,30.42
2022-08-17T07:04:19.472Z,29.45
2022-08-17T07:06:24.254Z,26.92
2022-08-17T07:08:41.142Z,28.23
2022-08-17T07:10:50.868Z,27.17
2022-08-17T07:12:54.753Z,31.88
2022-08-17T07:14:59.488Z,38.58
2022-08-17T07:17:04.380Z,24.60
2022-08-17T07:19:07.634Z,28.38
2022-08-17T07:21:30.518Z,25.73
2022-08-17T07:23:44.835Z,24.58
2022-08-17T07:25:48.060Z,31.13
2022-08-17T07:27:55.926Z,27.23
2022-08-17T07:30:09.730Z,35.20
2022-08-17T07:32:14.371Z,33.28
2022-08-17T07:34:15.941Z,27.00
2022-08-17T07:36:29.569Z,28.00
2022-08-17T07:38:33.818Z,29.48
2022-08-17T07:40:44.350Z,27.52
2022-08-17T07:43:07.946Z,26.25
2022-08-17T07:45:33.775Z,45.40
2022-08-17T07:47:54.039Z,28.08
2022-08-17T07:49:55.615Z,19.67
2022-08-17T07:52:48.394Z,26.88
2022-08-17T07:54:36.866Z,22.17
2022-08-17T07:57:00.473Z,23.15
2022-08-17T07:59:23.565Z,23.10
2022-08-17T08:01:25.676Z,18.85
2022-08-17T08:03:46.157Z,19.80
2022-08-17T08:05:57.439Z,15.43
2022-08-17T08:08:01.951Z,16.02
2022-08-17T08:10:14.257Z,17.08
2022-08-17T08:12:35.791Z,21.73
2022-08-17T08:14:39.725Z,17.30
2022-08-17T08:16:56.891Z,18.80
2022-08-17T08:19:00.830Z,21.65
2022-08-17T08:21:31.586Z,17.08
2022-08-17T08:23:46.553Z,16.02
2022-08-17T08:26:18.635Z,18.70
2022-08-17T08:28:39.831Z,17.42
2022-08-17T08:30:47.124Z,20.83
2022-08-17T08:33:12.960Z,17.10
2022-08-17T08:35:32.024Z,15.82
2022-08-17T08:38:01.347Z,17.88
2022-08-17T08:40:33.592Z,16.52
2022-08-17T08:42:44.668Z,22.80
2022-08-17T08:45:07.871Z,16.92
2022-08-17T08:47:25.274Z,20.73
2022-08-17T08:50:01.287Z,21.00
2022-08-17T08:51:57.420Z,13.25
2022-08-17T08:54:06.231Z,15.45
2022-08-17T08:56:34.813Z,15.13
2022-08-17T08:58:48.388Z,17.30
2022-08-17T09:00:53.382Z,15.57
2022-08-17T09:03:04.170Z,17.50
2022-08-17T09:05:44.519Z,16.35
2022-08-17T09:08:15.894Z,26.92
2022-08-17T09:10:26.632Z,18.00
2022-08-17T09:12:31.576Z,12.05
2022-08-17T09:14:46.656Z,20.73
2022-08-17T09:16:58.059Z,19.77
2022-08-17T09:19:08.870Z,23.13
2022-08-17T09:21:18.208Z,17.80
2022-08-17T09:23:37.997Z,20.70
2022-08-17T09:28:03.700Z,17.35
2022-08-17T09:30:09.818Z,20.98
2022-08-17T09:32:40.613Z,25.80
2022-08-17T09:34:53.610Z,16.17
2022-08-17T09:37:04.270Z,15.27
2022-08-17T09:39:25.385Z,17.13
2022-08-17T09:41:34.819Z,15.43
2022-08-17T09:43:47.207Z,15.57
2022-08-17T09:45:57.302Z,14.07
2022-08-17T09:48:15.220Z,16.40
2022-08-17T09:51:04.073Z,17.00
2022-08-17T09:52:46.531Z,14.27
2022-08-17T09:54:49.311Z,15.88
2022-08-17T09:57:27.802Z,12.55
2022-08-17T09:59:59.743Z,11.80
2022-08-17T10:02:26.508Z,14.45
2022-08-17T10:04:32.375Z,19.98
2022-08-17T10:06:48.724Z,20.20
2022-08-17T10:08:58.833Z,13.20
2022-08-17T10:12:01.264Z,14.93
2022-08-17T10:14:36.596Z,15.15
2022-08-17T10:16:41.445Z,16.52
2022-08-17T10:19:15.080Z,11.10
2022-08-17T10:21:36.901Z,12.02
2022-08-17T10:23:58.056Z,16.88
2022-08-17T10:26:14.419Z,15.57
2022-08-17T10:28:24.699Z,16.05
2022-08-17T10:30:32.044Z,15.07
2022-08-17T10:32:38.941Z,12.02
2022-08-17T10:35:31.362Z,16.88
2022-08-17T10:37:39.492Z,21.85
2022-08-17T10:40:05.694Z,13.57
2022-08-17T10:42:30.256Z,13.77
2022-08-17T10:44:50.802Z,18.42
2022-08-17T10:47:08.394Z,14.40
2022-08-17T10:49:19.036Z,15.90
2022-08-17T10:52:04.715Z,14.25
2022-08-17T10:54:46.348Z,10.43
2022-08-17T10:56:51.063Z,14.93
2022-08-17T10:58:54.089Z,15.73
2022-08-17T11:00:57.606Z,14.02
2022-08-17T11:03:00.827Z,13.95
2022-08-17T11:05:25.329Z,13.70
2022-08-17T11:07:58.542Z,10.57
2022-08-17T11:10:26.269Z,14.38
2022-08-17T11:12:55.322Z,15.82
2022-08-17T11:15:00.424Z,21.75
2022-08-17T11:17:41.708Z,13.63
2022-08-17T11:20:06.994Z,10.85
2022-08-17T11:22:34.445Z,11.13
2022-08-17T11:24:38.217Z,13.88
2022-08-17T11:26:46.817Z,10.73
2022-08-17T11:28:52.586Z,11.93
2022-08-17T11:30:57.363Z,9.88
2022-08-17T11:32:58.978Z,10.18
2022-08-17T11:35:12.416Z,13.13
2022-08-17T11:37:16.955Z,13.43
2022-08-17T11:39:37.510Z,12.02
2022-08-17T11:42:00.000Z,14.98
2022-08-17T11:44:20.809Z,13.10
2022-08-17T11:47:08.131Z,10.90
2022-08-17T11:49:41.929Z,14.70
2022-08-17T11:52:01.694Z,11.63
2022-08-17T11:56:41.123Z,14.13
2022-08-17T11:58:44.793Z,10.80
2022-08-17T12:00:46.425Z,17.50
2022-08-17T12:02:56.916Z,11.77
2022-08-17T12:05:27.274Z,15.02
2022-08-17T12:07:32.254Z,15.93
2022-08-17T12:09:35.004Z,12.10
2022-08-17T12:11:58.829Z,16.45
2022-08-17T12:14:01.539Z,17.88
2022-08-17T12:16:03.345Z,10.93
2022-08-17T12:18:06.697Z,12.48
2022-08-17T12:20:14.482Z,13.77
2022-08-17T12:22:21.507Z,14.68
2022-08-17T12:24:42.178Z,14.85
2022-08-17T12:26:52.019Z,10.40
2022-08-17T12:28:59.760Z,13.93
2022-08-17T12:31:07.593Z,9.68
2022-08-17T12:33:25.273Z,12.73
2022-08-17T12:35:36.017Z,12.57
2022-08-17T12:37:45.958Z,18.58
2022-08-17T12:39:54.900Z,20.08
2022-08-17T12:42:02.081Z,21.02
2022-08-17T12:44:14.779Z,19.48
2022-08-17T12:46:17.403Z,14.85
2022-08-17T12:48:25.854Z,12.32
2022-08-17T12:50:29.120Z,34.28
2022-08-17T12:52:32.985Z,11.70
2022-08-17T12:55:06.333Z,15.57
2022-08-17T12:57:14.588Z,13.45
2022-08-17T12:59:30.175Z,9.30
2022-08-17T13:01:42.303Z,11.63
2022-08-17T13:03:53.082Z,7.88
2022-08-17T13:06:03.425Z,10.60
2022-08-17T13:08:32.187Z,13.45
2022-08-17T13:10:36.042Z,16.47
2022-08-17T13:12:39.173Z,12.52
2022-08-17T13:14:46.067Z,11.23
2022-08-17T13:16:53.789Z,16.42
2022-08-17T13:19:06.759Z,10.40
2022-08-17T13:21:23.521Z,10.20
2022-08-17T13:23:26.435Z,14.30
2022-08-17T13:25:28.980Z,20.02
2022-08-17T13:27:32.294Z,11.27
2022-08-17T13:29:38.947Z,13.45
2022-08-17T13:31:52.426Z,22.02
2022-08-17T13:34:19.551Z,15.25
2022-08-17T13:36:30.225Z,12.38
2022-08-17T13:38:45.664Z,18.15
2022-08-17T13:40:53.168Z,10.20
2022-08-17T13:42:56.213Z,15.20
2022-08-17T13:44:58.563Z,11.27
2022-08-17T13:47:01.182Z,12.30
2022-08-17T13:49:11.675Z,19.42
2022-08-17T13:51:17.721Z,12.98
2022-08-17T13:53:29.936Z,13.27
2022-08-17T13:55:33.025Z,15.63
2022-08-17T13:57:35.434Z,11.82
2022-08-17T13:59:54.616Z,20.50
2022-08-17T14:01:57.508Z,10.23
2022-08-17T14:04:01.319Z,12.25
2022-08-17T14:06:04.990Z,10.23
2022-08-17T14:08:07.209Z,13.95
2022-08-17T14:10:17.476Z,13.52
2022-08-17T14:12:22.629Z,11.90
2022-08-17T14:14:24.533Z,13.57
2022-08-17T14:16:26.138Z,13.98
2022-08-17T14:18:55.641Z,11.57
2022-08-17T14:20:49.528Z,13.07
2022-08-17T14:22:53.688Z,13.20
2022-08-17T14:24:55.273Z,17.60
2022-08-17T14:27:03.475Z,10.07
2022-08-17T14:29:05.281Z,12.43
2022-08-17T14:31:17.028Z,18.30
2022-08-17T14:33:22.610Z,19.88
2022-08-17T14:35:24.659Z,15.93
2022-08-17T14:37:28.058Z,13.07
2022-08-17T14:39:29.846Z,14.48
2022-08-17T14:41:31.584Z,11.05
2022-08-17T14:43:34.775Z,11.10
2022-08-17T14:45:36.429Z,8.38
2022-08-17T14:47:39.854Z,13.90
2022-08-17T14:49:42.245Z,9.30
2022-08-17T14:51:49.381Z,8.50
2022-08-17T14:53:50.938Z,7.13
2022-08-17T14:55:52.634Z,8.25
2022-08-17T14:57:54.203Z,10.25
2022-08-17T14:59:56.688Z,10.52
2022-08-17T15:01:58.590Z,12.30
2022-08-17T15:04:01.105Z,9.52
2022-08-17T15:06:02.907Z,15.85
2022-08-17T15:08:05.724Z,13.05
2022-08-17T15:10:08.980Z,16.58
2022-08-17T15:12:16.798Z,16.10
2022-08-17T15:14:18.575Z,12.65
2022-08-17T15:16:20.550Z,13.35
2022-08-17T15:18:22.233Z,16.40
2022-08-17T15:20:28.021Z,16.73
2022-08-17T15:22:29.793Z,12.80
2022-08-17T15:24:31.358Z,21.67
2022-08-17T15:26:33.049Z,22.17
2022-08-17T15:28:34.776Z,16.23
2022-08-17T15:30:36.391Z,28.13
2022-08-17T15:32:40.620Z,16.67
2022-08-17T15:34:42.234Z,14.90
2022-08-17T15:36:49.113Z,16.75
2022-08-17T15:38:51.518Z,19.13
2022-08-17T15:40:53.867Z,24.65
2022-08-17T15:42:55.539Z,13.98
2022-08-17T15:44:57.371Z,14.30
2022-08-17T15:46:59.156Z,15.35
2022-08-17T15:49:00.718Z,13.63
2022-08-17T15:51:02.248Z,19.17
2022-08-17T15:53:04.878Z,15.02
2022-08-17T15:55:10.510Z,20.67
2022-08-17T15:57:12.071Z,21.80
2022-08-17T15:59:13.673Z,20.73
2022-08-17T16:01:42.389Z,17.63
2022-08-17T16:03:57.370Z,13.32
2022-08-17T16:06:02.141Z,17.33
2022-08-17T16:08:04.366Z,15.82
2022-08-17T16:10:08.007Z,14.43
2022-08-17T16:12:16.681Z,15.60
2022-08-17T16:14:18.250Z,13.85
2022-08-17T16:16:20.604Z,19.88
2022-08-17T16:18:31.442Z,12.73
2022-08-17T16:20:33.142Z,16.08
2022-08-17T16:22:41.821Z,12.48
2022-08-17T16:24:57.113Z,18.35
2022-08-17T16:26:59.407Z,14.18
2022-08-17T16:29:03.190Z,16.98
2022-08-17T16:31:05.895Z,15.77
2022-08-17T16:33:11.752Z,17.83
2022-08-17T16:35:17.146Z,19.80
2022-08-17T16:37:18.758Z,15.45
2022-08-17T16:39:20.826Z,18.10
2022-08-17T16:41:44.419Z,18.35
2022-08-17T16:43:47.221Z,26.35
2022-08-17T16:45:52.093Z,18.83
2022-08-17T16:47:54.543Z,16.73
2022-08-17T16:49:56.153Z,20.60
2022-08-17T16:52:01.714Z,19.02
2022-08-17T16:54:04.593Z,22.50
2022-08-17T16:56:07.306Z,18.77
2022-08-17T16:58:09.029Z,17.27
2022-08-17T17:00:12.973Z,22.88
2022-08-17T17:02:16.594Z,22.23
2022-08-17T17:04:18.678Z,23.20
2022-08-17T17:06:38.614Z,16.92
2022-08-17T17:08:50.838Z,15.10
2022-08-17T17:10:57.383Z,21.45
2022-08-17T17:13:02.898Z,18.83
2022-08-17T17:15:07.162Z,20.80
2022-08-17T17:17:31.994Z,18.13
2022-08-17T17:19:38.560Z,15.40
2022-08-17T17:21:58.898Z,23.95
2022-08-17T17:24:04.719Z,17.90
2022-08-17T17:26:28.007Z,15.93
2022-08-17T17:28:30.630Z,17.83
2022-08-17T17:31:02.148Z,16.75
2022-08-17T17:33:07.132Z,17.27
2022-08-17T17:35:14.670Z,16.58
2022-08-17T17:37:22.935Z,14.95
2022-08-17T17:39:37.194Z,18.73
2022-08-17T17:42:14.254Z,26.33
2022-08-17T17:44:24.888Z,23.52
2022-08-17T17:46:29.749Z,20.75
2022-08-17T17:48:31.308Z,22.83
2022-08-17T17:50:51.588Z,26.48
2022-08-17T17:52:59.002Z,22.95
2022-08-17T17:55:13.177Z,20.23
2022-08-17T17:57:24.710Z,27.60
2022-08-17T17:59:51.906Z,28.60
2022-08-17T18:02:34.704Z,48.65
2022-08-17T18:04:44.640Z,343.85
2022-08-17T18:07:15.282Z,94.15
2022-08-17T18:09:33.975Z,92.07
2022-08-17T18:11:51.519Z,54.33
2022-08-17T18:14:17.480Z,29.25
2022-08-17T18:16:19.287Z,32.28
2022-08-17T18:18:53.857Z,65.63
2022-08-17T18:21:04.833Z,33.75
2022-08-17T18:23:07.007Z,169.95
2022-08-17T18:26:01.906Z,72.38
2022-08-17T18:28:03.999Z,37.17
2022-08-17T18:30:14.793Z,22.33
2022-08-17T18:32:26.698Z,26.73
2022-08-17T18:34:47.723Z,39.83
2022-08-17T18:36:50.028Z,35.50
2022-08-17T18:39:10.061Z,33.15
2022-08-17T18:41:19.323Z,30.00
2022-08-17T18:43:27.151Z,35.60
2022-08-17T18:45:47.408Z,38.33
2022-08-17T18:47:55.325Z,46.67
2022-08-17T18:50:02.024Z,67.45
2022-08-17T18:52:29.781Z,61.42
2022-08-17T18:54:31.549Z,55.65
2022-08-17T18:56:35.302Z,45.50
2022-08-17T18:58:36.849Z,64.63
2022-08-17T19:00:41.769Z,84.88
2022-08-17T19:03:14.410Z,101.38
2022-08-17T19:05:33.660Z,72.53
2022-08-17T19:07:37.846Z,50.95
2022-08-17T19:09:47.238Z,34.80
2022-08-17T19:11:48.861Z,53.85
2022-08-17T19:14:04.078Z,65.85
2022-08-17T19:16:27.040Z,46.50
2022-08-17T19:18:35.936Z,47.13
2022-08-17T19:20:43.269Z,54.22
2022-08-17T19:22:54.592Z,61.58
2022-08-17T19:25:04.262Z,60.95
2022-08-17T19:27:23.886Z,116.57
2022-08-17T19:29:39.040Z,87.25
2022-08-17T19:31:40.750Z,86.47
2022-08-17T19:33:42.425Z,96.35
2022-08-17T19:35:58.926Z,70.80
2022-08-17T19:38:12.665Z,123.03
2022-08-17T19:40:53.141Z,59.00
2022-08-17T19:43:15.028Z,56.33
2022-08-17T19:46:06.212Z,57.15
2022-08-17T19:48:13.652Z,52.13
2022-08-17T19:50:22.435Z,67.43
2022-08-17T19:52:37.637Z,58.63
2022-08-17T19:54:48.046Z,61.35
2022-08-17T19:57:03.447Z,57.60
2022-08-17T19:59:20.163Z,58.03
2022-08-17T20:01:35.834Z,56.58
2022-08-17T20:04:06.372Z,61.10
2022-08-17T20:06:14.201Z,54.58
2022-08-17T20:08:24.439Z,53.72
2022-08-17T20:12:40.324Z,65.80
2022-08-17T20:14:53.478Z,69.35
2022-08-17T20:17:01.900Z,61.38
2022-08-17T20:19:19.463Z,65.32
2022-08-17T20:21:32.882Z,50.53
2022-08-17T20:23:43.931Z,42.35
2022-08-17T20:25:59.392Z,50.47
2022-08-17T20:28:16.336Z,39.47
2022-08-17T20:30:24.393Z,39.83
2022-08-17T20:32:28.286Z,38.80
2022-08-17T20:34:37.322Z,43.75
2022-08-17T20:36:58.046Z,37.15
2022-08-17T20:38:59.710Z,38.20
2022-08-17T20:41:01.328Z,39.55
2022-08-17T20:43:33.843Z,39.50
2022-08-17T20:45:41.225Z,38.63
2022-08-17T20:48:07.411Z,41.63
2022-08-17T20:50:15.644Z,48.15
2022-08-17T20:52:53.646Z,45.88
2022-08-17T20:54:57.424Z,65.80
2022-08-17T20:57:01.005Z,75.93
2022-08-17T20:59:02.585Z,59.40
2022-08-17T21:01:20.015Z,50.47
2022-08-17T21:03:24.504Z,41.25
2022-08-17T21:05:34.500Z,36.40
2022-08-17T21:07:53.510Z,38.70
2022-08-17T21:10:14.806Z,35.40
2022-08-17T21:12:41.311Z,35.40
2022-08-17T21:14:58.104Z,40.63
2022-08-17T21:17:14.948Z,34.28
2022-08-17T21:19:31.094Z,32.17
2022-08-17T21:21:48.527Z,31.70
2022-08-17T21:24:01.966Z,32.55
2022-08-17T21:26:20.660Z,30.05
2022-08-17T21:29:00.009Z,32.05
2022-08-17T21:31:08.997Z,32.05
2022-08-17T21:33:18.960Z,31.52
2022-08-17T21:35:28.366Z,32.67
2022-08-17T21:37:42.659Z,30.67
2022-08-17T21:39:48.079Z,30.42
2022-08-17T21:41:57.609Z,30.95
2022-08-17T21:44:27.808Z,30.10
2022-08-17T21:46:37.026Z,28.45
2022-08-17T21:48:44.183Z,28.45
2022-08-17T21:51:13.229Z,27.20
2022-08-17T21:53:50.908Z,30.53
2022-08-17T21:55:53.498Z,30.52
2022-08-17T21:58:11.415Z,32.95
2022-08-17T22:00:24.256Z,29.08
2022-08-17T22:02:29.677Z,29.20
2022-08-17T22:04:39.731Z,29.67
2022-08-17T22:06:56.865Z,32.75
2022-08-17T22:09:16.079Z,32.50
2022-08-17T22:11:18.610Z,35.38
2022-08-17T22:13:29.409Z,37.78
2022-08-17T22:15:31.628Z,31.33
2022-08-17T22:17:40.175Z,34.15
2022-08-17T22:19:49.117Z,32.10
2022-08-17T22:22:03.245Z,31.17
2022-08-17T22:24:16.010Z,31.75
2022-08-17T22:26:19.155Z,33.38
2022-08-17T22:28:42.193Z,32.55
2022-08-17T22:31:00.473Z,33.03
2022-08-17T22:33:40.288Z,33.67
2022-08-17T22:35:43.451Z,34.38
2022-08-17T22:37:45.090Z,31.15
2022-08-17T22:39:57.131Z,31.10
2022-08-17T22:42:00.841Z,28.38
2022-08-17T22:44:20.517Z,25.65
2022-08-17T22:46:23.912Z,26.52
2022-08-17T22:48:27.812Z,28.30
2022-08-17T22:50:31.082Z,26.85
2022-08-17T22:53:00.745Z,28.95
2022-08-17T22:55:35.710Z,32.33
2022-08-17T22:57:57.542Z,31.85
2022-08-17T22:59:59.955Z,28.67
2022-08-17T23:02:20.848Z,28.85
2022-08-17T23:04:37.591Z,25.10
2022-08-17T23:06:42.418Z,28.05
2022-08-17T23:08:54.930Z,30.02
2022-08-17T23:10:59.888Z,32.10
2022-08-17T23:13:01.477Z,34.15
2022-08-17T23:15:03.914Z,31.50
2022-08-17T23:17:06.497Z,30.98
2022-08-17T23:19:09.898Z,30.58
2022-08-17T23:21:13.498Z,34.42
2022-08-17T23:23:23.664Z,34.95
2022-08-17T23:25:31.174Z,34.58
2022-08-17T23:27:32.813Z,33.13
2022-08-17T23:29:35.090Z,32.42
2022-08-17T23:31:37.645Z,39.47
2022-08-17T23:33:40.061Z,36.50
2022-08-17T23:35:42.903Z,32.95
2022-08-17T23:37:44.554Z,31.20
2022-08-17T23:39:46.321Z,31.50
2022-08-17T23:41:48.491Z,30.05
2022-08-17T23:43:52.207Z,32.40
2022-08-17T23:45:54.848Z,35.75
2022-08-17T23:47:56.429Z,36.58
2022-08-17T23:49:58.006Z,36.83
2022-08-17T23:52:05.531Z,33.05
2022-08-17T23:54:12.700Z,31.80
2022-08-17T23:56:15.102Z,32.50
2022-08-17T23:58:18.015Z,34.25
